Troy Municipal Airport Troy US
ICAO: KTOI
IATA: TOI
Category: Medium
Scheduled Services: No

Elevation: 398 ft
TransAlt. 18000 ft.

Airport Communications:
CAIRNS APP/DEP:121.1
ATIS:120.925
GND:121.9
TWR:124.3
CTAF/UNICOM:122.8

KTOI Zoom In..

If you have problems with the map follow the link
https://www.worldairports.se/pages/airport.php?
ICAO=KTOI

Runways:

(A) RW 07 length 4693 ft width 100 ft
ILS 108.90 / hdg 70

(B) RW 14 length 5022 ft width 100 ft
---- / hdg 144

(C) RW 25 length 4693 ft width 100 ft
---- / hdg 250

(D) RW 32 length 5022 ft width 100 ft
---- / hdg 324

Location; KTOI
Day. 06 / Time. 11.53 Zulu
* Altimeter: 30.19
* Temperature: 7/° c. 44.6°f.
* Wind from: KTO° Speed I kn.
Dewpoint: //° c.
Visibility: 10 Statute Miles.
Clouds: Clear (automated report).

KTOI 061153Z AUTO 00000KT 10SM CLR 05/05 A3019 RMK AO2 SLP223 7//// T00500050 10061 20033 53012 $


Wind From KTO°
Speed I kn.

 
 
jpsmedia worldairports.se 2019   terms of use